Kiritimati, Kiribati

2:16 PM LINT on September 03, 2014 (GMT +1400)
Cassidy International | Change Station
CLOSE
Current Station
Airport
Location: Kiritimati,
Elevation: 3 ft
Nearby Weather Stations

Elev 3 ft 1.99 °N, 157.35 °W | Updated 2 hours ago

Scattered Clouds
Scattered Clouds
86 °F
Feels Like 93 °F
N
4
Wind Variable Wind from Variable

Today
High -- | Low -- °F
--% Chance of Precip.
Yesterday
High -- | Low -- °F
Precip. -- in
6:24 AM 6:33 PM
First Quarter, 56% visible
Pressure 29.80 in
Visibility 6.2 miles
Clouds Scattered Clouds 2000 ft
Heat Index 93 °F
Dew Point 73 °F
Humidity 66%
Rainfall 0.00 in
Snow Depth Not available.
UV 10 out of 12
Pollen Not available.
Air Quality Not available.
Flu Activity Not available.
METAR PLCH 022200Z VRB03KT 9999 SCT020 30/23 Q1009

More Conditions Fewer Conditions

Pressure 29.80 in
Visibility 6.2 miles
Clouds Scattered Clouds 2000 ft
Heat Index 93 °F
Dew Point 73 °F
Humidity 66%
Rainfall 0.00 in
Snow Depth Not available.
UV 10 out of 12
Pollen Not available.
Air Quality Not available.
Flu Activity Not available.
METAR PLCH 022200Z VRB03KT 9999 SCT020 30/23 Q1009

More Conditions Fewer Conditions

10-Day Weather Forecast

Almanac

Astronomy

Sep. 03, 2014 Rise Set
Actual Time 6:24 AM LINT 6:33 PM LINT
Civil Twilight 6:04 AM LINT 6:54 PM LINT
Nautical Twilight 5:39 AM LINT 7:18 PM LINT
Astronomical Twilight 5:15 AM LINT 7:42 PM LINT
Moon 12:48 PM LINT 12:14 AM LINT
Length of Visible Light 12h 50m
Length of Day
12h 08m
Tomorrow will be 0m 6s shorter.
First Quarter, 56% of the Moon is Illuminated
Sep 2
First Quarter
Sep 8
Full
Sep 15
Last Quarter
Sep 24
New
Oct 1
First Quarter

Yesterday's Extremes

Country Highs Country Lows

Community

WunderPhotos

Upload Photos

1,749,807 photos uploaded!

Nearby

Snow Depth

Not available.

Earthquake Activity

City Distance Mag. Time & Date
No recent earthquake activity has been reported nearby.
Minimum magnitude displayed is 2.5.

Coastal Water Temperatures

Place Temperature
No Stations Reporting

Nearby Weather Stations